Time;durP1;ratioP1;P1;durP2;ratioP2;P2;SDS_P1;SDS_P2;PMS_P1;PMS_P2;Temp;Humidity;BMP_temperature;BMP_pressure;BME280_temperature;BME280_humidity;BME280_pressure;Samples;Min_cycle;Max_cycle;Signal;HPM_P1;HPM_P2
2022/10/27 00:00:48;;;;;;;72.67;10.23;;;13.90;1.00;;;;;;5052573;28;20451;-70
2022/10/27 00:03:16;;;;;;;74.60;10.13;;;13.90;1.00;;;;;;5052358;28;20483;-70
2022/10/27 00:05:43;;;;;;;68.43;9.70;;;13.90;1.00;;;;;;5052505;28;20455;-70
2022/10/27 00:08:14;;;;;;;67.20;9.30;;;13.90;1.00;;;;;;5052276;28;20466;-70
2022/10/27 00:10:41;;;;;;;70.83;9.80;;;13.80;1.00;;;;;;5052236;28;20452;-70
2022/10/27 00:13:08;;;;;;;72.13;9.33;;;13.80;1.00;;;;;;5052356;28;20454;-70
2022/10/27 00:15:35;;;;;;;69.27;10.40;;;13.80;1.00;;;;;;5052381;28;20451;-70
2022/10/27 00:18:07;;;;;;;67.70;9.37;;;13.70;1.00;;;;;;5051984;28;20794;-70
2022/10/27 00:20:34;;;;;;;68.50;8.90;;;13.70;1.00;;;;;;5052043;28;20463;-70
2022/10/27 00:23:01;;;;;;;71.13;8.93;;;13.70;1.00;;;;;;5051918;28;20486;-70
2022/10/27 00:25:28;;;;;;;66.73;9.33;;;13.70;1.00;;;;;;5052230;28;20493;-70
2022/10/27 00:27:55;;;;;;;68.43;10.37;;;13.60;1.00;;;;;;5051977;28;20852;-71
2022/10/27 00:30:21;;;;;;;68.57;9.50;;;13.60;1.00;;;;;;5051719;28;20454;-70
2022/10/27 00:32:48;;;;;;;66.37;8.87;;;13.60;1.00;;;;;;5052195;28;20440;-70
2022/10/27 00:35:16;;;;;;;69.77;8.57;;;13.60;1.00;;;;;;5052098;28;20454;-70
2022/10/27 00:37:43;;;;;;;65.40;8.73;;;13.60;1.00;;;;;;5051892;28;20496;-70
2022/10/27 00:40:12;;;;;;;66.27;8.67;;;13.50;1.00;;;;;;5051536;28;20444;-70
2022/10/27 00:42:38;;;;;;;67.50;9.00;;;13.50;1.00;;;;;;5051661;28;20486;-70
2022/10/27 00:45:06;;;;;;;67.50;9.20;;;13.50;1.00;;;;;;5051663;28;20451;-70
2022/10/27 00:47:35;;;;;;;68.17;11.20;;;13.50;1.00;;;;;;5051906;28;20495;-70
2022/10/27 00:50:06;;;;;;;69.63;9.17;;;13.50;1.00;;;;;;5051572;28;20513;-70
2022/10/27 00:52:38;;;;;;;68.17;9.50;;;13.50;1.00;;;;;;5051700;28;20952;-70
2022/10/27 00:55:09;;;;;;;67.97;9.40;;;13.40;1.00;;;;;;5051724;28;20567;-70
2022/10/27 00:57:37;;;;;;;65.13;9.53;;;13.40;1.00;;;;;;5051461;28;20475;-70
2022/10/27 01:00:06;;;;;;;68.27;8.53;;;13.40;1.00;;;;;;5051520;28;20451;-70
2022/10/27 01:02:35;;;;;;;67.27;9.47;;;13.30;1.00;;;;;;5051550;28;20490;-70
2022/10/27 01:05:06;;;;;;;63.80;8.00;;;13.30;1.00;;;;;;5051887;28;20455;-70
2022/10/27 01:07:35;;;;;;;64.87;9.00;;;13.30;1.00;;;;;;5051482;28;20482;-70
2022/10/27 01:10:03;;;;;;;67.37;8.00;;;13.20;1.00;;;;;;5051141;28;20473;-70
2022/10/27 01:12:29;;;;;;;65.10;8.70;;;13.20;1.00;;;;;;5051499;28;20452;-70
2022/10/27 01:14:56;;;;;;;65.40;8.73;;;13.20;1.00;;;;;;5051723;28;20837;-71
2022/10/27 01:17:40;;;;;;;64.43;8.73;;;13.10;1.00;;;;;;5051886;28;20800;-70
2022/10/27 01:20:33;;;;;;;69.97;8.90;;;13.10;1.00;;;;;;5054280;28;20960;-70
2022/10/27 01:23:11;;;;;;;76.23;9.77;;;13.10;1.00;;;;;;5055690;28;20484;-70
2022/10/27 01:26:11;;;;;;;71.10;9.53;;;13.10;1.00;;;;;;5055655;28;20824;-70
2022/10/27 01:29:07;;;;;;;67.47;8.97;;;13.10;1.00;;;;;;5024485;28;20445;-70
2022/10/27 01:31:40;;;;;;;64.57;9.17;;;13.00;1.00;;;;;;5055535;28;20483;-70
2022/10/27 01:34:12;;;;;;;65.87;7.90;;;13.00;1.00;;;;;;5053773;28;20447;-70
2022/10/27 01:36:43;;;;;;;65.57;8.10;;;13.00;1.00;;;;;;5055417;28;20470;-70
2022/10/27 01:39:16;;;;;;;67.47;9.37;;;12.90;1.00;;;;;;5055224;28;20443;-70
2022/10/27 01:41:47;;;;;;;66.33;9.90;;;12.90;1.00;;;;;;5055195;28;20447;-70
2022/10/27 01:44:21;;;;;;;67.50;8.70;;;12.80;1.00;;;;;;5055394;28;20461;-70
2022/10/27 01:46:52;;;;;;;65.60;8.30;;;12.80;1.00;;;;;;5055075;28;20494;-70
2022/10/27 01:49:19;;;;;;;68.37;8.70;;;12.90;1.00;;;;;;5054813;28;20456;-71
2022/10/27 01:51:46;;;;;;;73.20;9.50;;;13.00;1.00;;;;;;5055043;28;20460;-70
2022/10/27 01:54:13;;;;;;;71.13;8.53;;;12.80;1.00;;;;;;5055029;28;20451;-70
2022/10/27 01:57:10;;;;;;;73.43;10.60;;;12.80;1.00;;;;;;5054770;28;20470;-70
2022/10/27 01:59:58;;;;;;;69.93;8.37;;;12.50;1.00;;;;;;5054704;28;20459;-70
2022/10/27 02:02:33;;;;;;;120.67;13.17;;;12.70;1.00;;;;;;5054776;28;20501;-70
2022/10/27 02:05:08;;;;;;;110.67;12.33;;;12.90;1.00;;;;;;5054733;28;20449;-70
2022/10/27 02:07:45;;;;;;;65.03;7.97;;;12.90;1.00;;;;;;5054538;28;20465;-70
2022/10/27 02:10:18;;;;;;;66.07;9.03;;;13.00;1.00;;;;;;5054532;28;20453;-70
2022/10/27 02:12:46;;;;;;;67.70;9.13;;;13.10;1.00;;;;;;5054551;28;20985;-70
2022/10/27 02:15:20;;;;;;;93.73;11.67;;;13.20;1.00;;;;;;5054801;28;20763;-70
2022/10/27 02:17:51;;;;;;;97.03;11.13;;;13.10;1.00;;;;;;5054384;28;20800;-70
2022/10/27 02:20:23;;;;;;;101.83;13.00;;;13.10;1.00;;;;;;5054433;28;20466;-70
2022/10/27 02:22:53;;;;;;;70.20;10.17;;;13.20;1.00;;;;;;5054473;28;20486;-70
2022/10/27 02:25:24;;;;;;;67.70;9.43;;;13.20;1.00;;;;;;5054610;28;20837;-70
2022/10/27 02:27:53;;;;;;;142.67;14.17;;;13.30;1.00;;;;;;5054423;28;20468;-70
2022/10/27 02:30:20;;;;;;;128.17;12.90;;;13.20;1.00;;;;;;5053750;28;20451;-70
2022/10/27 02:32:49;;;;;;;88.13;10.87;;;13.20;1.00;;;;;;5054395;28;20819;-70
2022/10/27 02:35:17;;;;;;;103.73;10.40;;;13.10;1.00;;;;;;5054243;28;20862;-71
2022/10/27 02:37:46;;;;;;;87.53;9.53;;;13.10;1.00;;;;;;5053986;28;20900;-70
2022/10/27 02:40:12;;;;;;;92.33;11.13;;;13.10;1.00;;;;;;5053739;28;20967;-70
2022/10/27 02:42:39;;;;;;;66.23;8.10;;;12.90;1.00;;;;;;5053769;28;20482;-70
2022/10/27 02:45:07;;;;;;;114.80;12.63;;;12.80;1.00;;;;;;5053828;28;20456;-70
2022/10/27 02:47:34;;;;;;;133.40;13.90;;;12.80;1.00;;;;;;5054000;28;20475;-70
2022/10/27 02:50:02;;;;;;;137.87;12.57;;;12.50;1.00;;;;;;5053454;28;20955;-70
2022/10/27 02:52:28;;;;;;;113.10;11.60;;;12.00;1.00;;;;;;5054099;28;20449;-70
2022/10/27 02:54:55;;;;;;;114.10;11.60;;;12.20;1.00;;;;;;5053892;28;20460;-70
2022/10/27 02:57:22;;;;;;;140.03;14.13;;;11.90;1.00;;;;;;5053571;28;21033;-70
2022/10/27 02:59:49;;;;;;;158.13;15.37;;;12.00;1.00;;;;;;5053283;28;20451;-70
2022/10/27 03:02:15;;;;;;;151.63;14.87;;;12.10;1.00;;;;;;5053604;28;20450;-70
2022/10/27 03:04:42;;;;;;;104.43;10.97;;;12.00;1.00;;;;;;5053602;28;20457;-70
2022/10/27 03:07:10;;;;;;;134.73;13.70;;;12.10;1.00;;;;;;5053732;28;20475;-70
2022/10/27 03:09:37;;;;;;;123.60;12.10;;;12.10;1.00;;;;;;5052881;28;20960;-70
2022/10/27 03:12:04;;;;;;;126.50;12.40;;;12.20;1.00;;;;;;5053264;28;20448;-70
2022/10/27 03:14:31;;;;;;;85.27;10.50;;;12.50;1.00;;;;;;5053760;28;20457;-70
2022/10/27 03:16:58;;;;;;;105.27;11.07;;;12.70;1.00;;;;;;5053335;28;20484;-70
2022/10/27 03:19:24;;;;;;;73.47;8.27;;;12.50;1.00;;;;;;5053091;28;20829;-70
2022/10/27 03:21:51;;;;;;;152.87;13.33;;;12.50;1.00;;;;;;5053465;28;20454;-70
2022/10/27 03:24:19;;;;;;;109.53;11.03;;;12.50;1.00;;;;;;5053220;28;20486;-70
2022/10/27 03:26:46;;;;;;;129.57;13.20;;;12.60;1.00;;;;;;5053087;28;20475;-70
2022/10/27 03:29:13;;;;;;;85.83;10.50;;;12.20;1.00;;;;;;5052763;28;20990;-70
2022/10/27 03:31:40;;;;;;;69.60;9.17;;;12.20;1.00;;;;;;5053245;28;20458;-70
2022/10/27 03:34:07;;;;;;;112.60;13.23;;;12.40;1.00;;;;;;5053047;28;20458;-70
2022/10/27 03:36:33;;;;;;;87.27;9.87;;;12.40;1.00;;;;;;5052870;28;20469;-70
2022/10/27 03:39:00;;;;;;;76.33;9.30;;;12.40;1.00;;;;;;5052645;28;20500;-70
2022/10/27 03:41:28;;;;;;;77.83;8.70;;;12.50;1.00;;;;;;5052501;28;20871;-70
2022/10/27 03:43:55;;;;;;;101.90;11.13;;;12.60;1.00;;;;;;5052902;28;20577;-70
2022/10/27 03:46:22;;;;;;;82.67;9.47;;;12.60;1.00;;;;;;5053046;28;20567;-70
2022/10/27 03:48:49;;;;;;;85.17;10.80;;;12.40;1.00;;;;;;5052481;28;20451;-70
2022/10/27 03:51:15;;;;;;;69.10;9.73;;;12.40;1.00;;;;;;5052584;28;20459;-70
2022/10/27 03:53:42;;;;;;;67.53;9.27;;;12.50;1.00;;;;;;5052541;28;20451;-70
2022/10/27 03:56:12;;;;;;;64.20;9.30;;;12.70;1.00;;;;;;5052717;28;20463;-70
2022/10/27 03:58:40;;;;;;;120.00;11.20;;;12.50;1.00;;;;;;5052355;28;20465;-70
2022/10/27 04:01:07;;;;;;;91.40;11.03;;;12.50;1.00;;;;;;5052612;28;20505;-70
2022/10/27 04:03:34;;;;;;;95.57;11.00;;;12.40;1.00;;;;;;5052592;28;20485;-70
2022/10/27 04:06:00;;;;;;;80.60;9.77;;;12.20;1.00;;;;;;5052425;28;20835;-70
2022/10/27 04:08:27;;;;;;;95.47;10.63;;;12.20;1.00;;;;;;5052695;28;20454;-70
2022/10/27 04:10:54;;;;;;;101.53;11.63;;;12.30;1.00;;;;;;5052110;28;20455;-70
2022/10/27 04:13:21;;;;;;;96.23;11.63;;;12.10;1.00;;;;;;5052321;28;20456;-70
2022/10/27 04:15:49;;;;;;;81.07;10.10;;;12.10;1.00;;;;;;5052152;28;20464;-70
2022/10/27 04:18:16;;;;;;;74.37;9.60;;;12.20;1.00;;;;;;5051967;28;20833;-70
2022/10/27 04:20:42;;;;;;;80.00;11.30;;;12.20;1.00;;;;;;5051947;28;20449;-70
2022/10/27 04:23:09;;;;;;;88.70;11.70;;;12.20;1.00;;;;;;5052254;28;20489;-70
2022/10/27 04:25:36;;;;;;;92.90;10.93;;;12.20;1.00;;;;;;5052274;28;20457;-70
2022/10/27 04:28:04;;;;;;;72.37;9.80;;;12.10;1.00;;;;;;5051966;28;20470;-70
2022/10/27 04:30:31;;;;;;;92.80;10.50;;;12.00;1.00;;;;;;5052183;28;20460;-70
2022/10/27 04:32:59;;;;;;;90.27;10.87;;;12.10;1.00;;;;;;5051983;28;20449;-70
2022/10/27 04:35:26;;;;;;;85.13;11.40;;;12.10;1.00;;;;;;5051679;28;20453;-70
2022/10/27 04:37:55;;;;;;;81.13;10.40;;;12.20;1.00;;;;;;5052028;28;20497;-70
2022/10/27 04:40:21;;;;;;;94.70;11.57;;;12.30;1.00;;;;;;5051770;28;20451;-70
2022/10/27 04:42:48;;;;;;;65.80;9.10;;;12.30;1.00;;;;;;5051877;28;20457;-70
2022/10/27 04:45:15;;;;;;;87.93;11.47;;;12.30;1.00;;;;;;5051830;28;20458;-70
2022/10/27 04:47:43;;;;;;;161.50;14.47;;;12.40;1.00;;;;;;5051699;28;20473;-70
2022/10/27 04:50:12;;;;;;;88.10;12.13;;;12.50;1.00;;;;;;5051449;28;20943;-70
2022/10/27 04:52:39;;;;;;;111.50;12.73;;;12.40;1.00;;;;;;5051442;28;20452;-70
2022/10/27 04:55:06;;;;;;;81.33;10.90;;;12.00;1.00;;;;;;5051389;28;20475;-70
2022/10/27 04:57:33;;;;;;;80.70;10.60;;;11.90;1.00;;;;;;5051761;28;20879;-70
2022/10/27 05:00:00;;;;;;;95.13;11.90;;;12.00;1.00;;;;;;5051324;28;20960;-70
2022/10/27 05:02:27;;;;;;;74.10;10.50;;;12.10;1.00;;;;;;5051475;28;20449;-70
2022/10/27 05:04:54;;;;;;;81.17;11.20;;;11.70;1.00;;;;;;5051276;28;20491;-70
2022/10/27 05:07:22;;;;;;;99.67;12.57;;;11.70;1.00;;;;;;5051665;28;20828;-70
2022/10/27 05:09:49;;;;;;;99.30;13.40;;;11.80;1.00;;;;;;5051389;28;20454;-70
2022/10/27 05:12:15;;;;;;;93.30;13.33;;;12.00;1.00;;;;;;5051544;28;20462;-70
2022/10/27 05:14:42;;;;;;;86.53;11.97;;;12.00;1.00;;;;;;5051457;28;20451;-70
2022/10/27 05:17:09;;;;;;;66.97;10.00;;;11.90;1.00;;;;;;5051189;28;20472;-70
2022/10/27 05:19:36;;;;;;;83.70;11.43;;;11.80;1.00;;;;;;5050903;28;20462;-70
2022/10/27 05:22:03;;;;;;;104.13;12.30;;;11.90;1.00;;;;;;5051520;28;20454;-70
2022/10/27 05:24:31;;;;;;;76.30;10.60;;;12.00;1.00;;;;;;5051425;28;20482;-70
2022/10/27 05:26:57;;;;;;;145.03;13.90;;;11.70;1.00;;;;;;5051278;28;20470;-71
2022/10/27 05:29:25;;;;;;;181.00;17.50;;;11.50;1.00;;;;;;5051025;28;20456;-70
2022/10/27 05:31:52;;;;;;;103.97;13.57;;;11.20;1.00;;;;;;5051530;28;20512;-70
2022/10/27 05:34:19;;;;;;;118.90;15.37;;;10.90;1.00;;;;;;5051208;28;20447;-70
2022/10/27 05:36:46;;;;;;;119.50;15.30;;;11.10;1.00;;;;;;5051162;28;21009;-70
2022/10/27 05:39:13;;;;;;;97.60;13.10;;;11.10;1.00;;;;;;5050989;28;20458;-70
2022/10/27 05:41:41;;;;;;;130.30;14.67;;;11.10;1.00;;;;;;5051229;28;20511;-70
2022/10/27 05:44:08;;;;;;;130.37;16.67;;;11.00;1.00;;;;;;5050919;28;20482;-70
2022/10/27 05:46:35;;;;;;;102.90;12.80;;;10.70;1.00;;;;;;5051266;28;20475;-70
2022/10/27 05:49:02;;;;;;;142.00;15.73;;;10.50;1.00;;;;;;5050986;28;20543;-70
2022/10/27 05:51:29;;;;;;;153.80;16.80;;;10.70;1.00;;;;;;5051019;28;20969;-70
2022/10/27 05:53:56;;;;;;;120.27;14.73;;;10.60;1.00;;;;;;5051234;28;20457;-70
2022/10/27 05:56:23;;;;;;;133.17;14.53;;;10.60;1.00;;;;;;5051080;28;20990;-70
2022/10/27 05:58:51;;;;;;;82.53;13.50;;;10.70;1.00;;;;;;5050750;28;20821;-70
2022/10/27 06:01:18;;;;;;;122.13;15.10;;;10.80;1.00;;;;;;5051152;28;20457;-70
2022/10/27 06:03:45;;;;;;;96.50;14.27;;;10.70;1.00;;;;;;5051019;28;20483;-70
2022/10/27 06:06:12;;;;;;;105.33;13.87;;;10.60;1.00;;;;;;5054192;28;20459;-70
2022/10/27 06:08:39;;;;;;;133.27;17.20;;;10.30;1.00;;;;;;5054537;28;20452;-70
2022/10/27 06:11:05;;;;;;;101.63;13.50;;;10.20;1.00;;;;;;5041204;28;20453;-70
2022/10/27 06:13:32;;;;;;;106.23;13.50;;;10.10;1.00;;;;;;5046424;28;20454;-70
2022/10/27 06:16:00;;;;;;;83.70;12.70;;;10.00;1.00;;;;;;5054427;28;20953;-70
2022/10/27 06:18:27;;;;;;;94.90;11.83;;;10.10;1.00;;;;;;5054385;28;20466;-70
2022/10/27 06:20:54;;;;;;;73.03;11.40;;;10.30;1.00;;;;;;5054346;28;20456;-70
2022/10/27 06:23:21;;;;;;;121.40;13.67;;;10.50;1.00;;;;;;5054390;28;20460;-70
2022/10/27 06:25:47;;;;;;;81.27;13.53;;;10.50;1.00;;;;;;5054261;28;20448;-71
2022/10/27 06:28:14;;;;;;;98.23;14.17;;;10.50;1.00;;;;;;5054257;28;20479;-71
2022/10/27 06:30:43;;;;;;;132.60;13.90;;;10.60;1.00;;;;;;5054036;28;20464;-71
2022/10/27 06:33:11;;;;;;;76.33;10.90;;;10.70;1.00;;;;;;5054266;28;20462;-71
2022/10/27 06:35:38;;;;;;;107.07;12.53;;;10.90;1.00;;;;;;5054147;28;20447;-71
2022/10/27 06:38:04;;;;;;;88.67;12.10;;;11.10;1.00;;;;;;5053899;28;20485;-71
2022/10/27 06:40:31;;;;;;;90.97;12.43;;;11.30;1.00;;;;;;5053768;28;20465;-71
2022/10/27 06:42:58;;;;;;;74.90;11.57;;;11.40;1.00;;;;;;5054140;28;20820;-71
2022/10/27 06:45:25;;;;;;;75.53;12.47;;;11.40;1.00;;;;;;5054202;28;20487;-71
2022/10/27 06:48:01;;;;;;;68.33;11.20;;;11.60;1.00;;;;;;5053783;28;21010;-70
2022/10/27 06:50:30;;;;;;;67.23;11.17;;;11.80;1.00;;;;;;5053669;28;20855;-71
2022/10/27 06:52:57;;;;;;;66.13;10.20;;;12.00;1.00;;;;;;5053767;28;20453;-70
2022/10/27 06:55:25;;;;;;;69.87;11.57;;;12.10;1.00;;;;;;5054090;28;20450;-70
2022/10/27 06:57:51;;;;;;;72.40;12.13;;;12.40;1.00;;;;;;5053738;28;20463;-70
2022/10/27 07:00:19;;;;;;;67.40;10.87;;;12.50;1.00;;;;;;5053547;28;20710;-70
2022/10/27 07:02:46;;;;;;;69.90;11.80;;;12.60;1.00;;;;;;5053592;28;20973;-70
2022/10/27 07:05:13;;;;;;;66.03;10.73;;;12.70;1.00;;;;;;5053475;28;20505;-70
2022/10/27 07:07:46;;;;;;;68.40;11.00;;;12.80;1.00;;;;;;5053773;28;20475;-70
2022/10/27 07:10:12;;;;;;;65.37;9.70;;;12.90;1.00;;;;;;5053715;28;20774;-70
2022/10/27 07:12:39;;;;;;;67.77;12.10;;;13.00;1.00;;;;;;5053384;28;20456;-70
2022/10/27 07:15:07;;;;;;;65.60;10.97;;;13.10;1.00;;;;;;5053365;28;20455;-70
2022/10/27 07:17:34;;;;;;;66.33;10.20;;;13.20;1.00;;;;;;5052329;28;20493;-70
2022/10/27 07:20:01;;;;;;;68.07;11.53;;;13.20;1.00;;;;;;5052951;28;20473;-70
2022/10/27 07:22:27;;;;;;;65.47;10.23;;;13.30;1.00;;;;;;5053484;28;20452;-70
2022/10/27 07:24:55;;;;;;;65.90;10.30;;;13.30;1.00;;;;;;5053353;28;20498;-70
2022/10/27 07:27:22;;;;;;;68.27;11.37;;;13.40;1.00;;;;;;5052992;28;20475;-70
2022/10/27 07:29:49;;;;;;;66.53;10.93;;;13.20;1.00;;;;;;5053153;28;21039;-70
2022/10/27 07:32:16;;;;;;;66.60;10.90;;;13.10;1.00;;;;;;5053281;28;20447;-70
2022/10/27 07:34:43;;;;;;;68.00;11.07;;;13.00;1.00;;;;;;5052953;28;20453;-70
2022/10/27 07:37:09;;;;;;;68.17;10.40;;;12.90;1.00;;;;;;5052862;28;20995;-70
2022/10/27 07:39:36;;;;;;;66.57;11.47;;;12.40;1.00;;;;;;5052760;28;20461;-70
2022/10/27 07:42:04;;;;;;;67.47;10.47;;;11.80;1.00;;;;;;5052941;28;20460;-70
2022/10/27 07:44:31;;;;;;;65.20;10.40;;;11.70;1.00;;;;;;5053040;28;20493;-70
2022/10/27 07:46:58;;;;;;;66.90;10.40;;;12.00;1.00;;;;;;5052596;28;20478;-70
2022/10/27 07:49:25;;;;;;;67.40;10.07;;;12.20;1.00;;;;;;5052372;28;20455;-70
2022/10/27 07:51:52;;;;;;;65.20;10.07;;;12.50;1.00;;;;;;5052913;28;20462;-70
2022/10/27 07:54:19;;;;;;;71.67;10.90;;;12.40;1.00;;;;;;5052601;28;20945;-70
2022/10/27 07:56:48;;;;;;;71.27;11.10;;;12.00;1.00;;;;;;5052495;28;20468;-70
2022/10/27 07:59:16;;;;;;;67.57;10.83;;;12.00;1.00;;;;;;5052309;28;20463;-70
2022/10/27 08:01:43;;;;;;;66.13;10.40;;;12.00;1.00;;;;;;5052459;28;20452;-70
2022/10/27 08:04:09;;;;;;;67.60;9.90;;;12.50;1.00;;;;;;5052694;28;20490;-70
2022/10/27 08:06:36;;;;;;;67.33;11.57;;;12.80;1.00;;;;;;5052745;28;20463;-70
2022/10/27 08:09:03;;;;;;;65.00;9.80;;;13.20;1.00;;;;;;5052010;28;20447;-70
2022/10/27 08:11:30;;;;;;;73.93;11.77;;;13.30;1.00;;;;;;5052300;28;20452;-70
2022/10/27 08:13:56;;;;;;;70.70;10.07;;;13.70;1.00;;;;;;5052305;28;20818;-70
2022/10/27 08:16:25;;;;;;;68.47;10.20;;;13.80;1.00;;;;;;5052098;28;20475;-70
2022/10/27 08:18:51;;;;;;;66.20;10.53;;;14.10;1.00;;;;;;5052139;28;20470;-70
2022/10/27 08:21:18;;;;;;;64.70;11.20;;;14.40;1.00;;;;;;5052269;28;20455;-70
2022/10/27 08:23:45;;;;;;;68.53;10.10;;;14.50;1.00;;;;;;5052122;28;20941;-70
2022/10/27 08:26:12;;;;;;;66.17;9.87;;;14.70;1.00;;;;;;5051967;28;20954;-70
2022/10/27 08:28:38;;;;;;;69.30;10.87;;;14.80;1.00;;;;;;5051461;28;20824;-70
2022/10/27 08:31:05;;;;;;;68.87;9.70;;;15.00;1.00;;;;;;5052316;28;20456;-70
2022/10/27 08:33:33;;;;;;;65.10;10.57;;;15.00;1.00;;;;;;5052166;28;20447;-70
2022/10/27 08:36:01;;;;;;;67.07;9.77;;;15.20;1.00;;;;;;5052042;28;20440;-70
2022/10/27 08:38:31;;;;;;;66.20;9.90;;;15.30;1.00;;;;;;5051978;28;20811;-70
2022/10/27 08:41:17;;;;;;;67.63;10.30;;;15.40;1.00;;;;;;5051808;28;20866;-70
2022/10/27 08:44:00;;;;;;;70.43;10.10;;;15.50;1.00;;;;;;5052090;28;20452;-70
2022/10/27 08:46:32;;;;;;;66.30;9.50;;;15.70;1.00;;;;;;5051953;28;20468;-70
2022/10/27 08:49:04;;;;;;;67.43;10.50;;;15.60;1.00;;;;;;5051476;28;20447;-70
2022/10/27 08:51:32;;;;;;;66.47;9.77;;;15.70;1.00;;;;;;5051694;28;20450;-70
2022/10/27 08:54:00;;;;;;;68.83;10.57;;;15.80;1.00;;;;;;5051742;28;20448;-70
2022/10/27 08:56:34;;;;;;;67.60;10.30;;;16.20;1.00;;;;;;5051526;28;20522;-70
2022/10/27 08:59:02;;;;;;;66.30;10.00;;;16.40;1.00;;;;;;5051496;28;20450;-70
2022/10/27 09:01:36;;;;;;;69.00;9.77;;;16.40;1.00;;;;;;5051597;28;20837;-70
2022/10/27 09:04:22;;;;;;;68.53;9.80;;;16.60;1.00;;;;;;5051478;28;20459;-70
2022/10/27 09:06:59;;;;;;;68.13;8.77;;;16.80;1.00;;;;;;5051718;28;20476;-70
2022/10/27 09:09:31;;;;;;;65.97;9.47;;;16.90;1.00;;;;;;5051095;28;20448;-70
2022/10/27 09:12:09;;;;;;;70.00;9.40;;;17.10;1.00;;;;;;5051534;28;20460;-70
2022/10/27 09:15:02;;;;;;;66.73;9.60;;;17.00;1.00;;;;;;5051430;28;20460;-70
2022/10/27 09:17:35;;;;;;;68.50;10.20;;;17.40;1.00;;;;;;5051537;28;20491;-70
2022/10/27 09:20:16;;;;;;;67.60;10.17;;;17.50;1.00;;;;;;5051105;28;20868;-70
2022/10/27 09:22:43;;;;;;;68.33;9.37;;;17.70;1.00;;;;;;5051598;28;20785;-71
2022/10/27 09:25:18;;;;;;;68.57;8.90;;;18.00;1.00;;;;;;5051719;28;20491;-71
2022/10/27 09:27:48;;;;;;;67.43;8.50;;;18.60;1.00;;;;;;5051538;28;20472;-71
2022/10/27 09:30:15;;;;;;;70.67;7.77;;;20.70;1.00;;;;;;5051119;28;20448;-71
2022/10/27 09:32:47;;;;;;;70.30;7.37;;;24.70;1.00;;;;;;5051723;28;20448;-71
2022/10/27 09:35:19;;;;;;;63.70;7.00;;;28.60;1.00;;;;;;5051252;28;20443;-71
2022/10/27 09:37:46;;;;;;;62.80;5.97;;;31.60;1.00;;;;;;5051432;28;20533;-71
2022/10/27 09:40:14;;;;;;;62.90;6.30;;;33.30;99.90;;;;;;5052563;28;20448;-72
2022/10/27 09:42:41;;;;;;;62.37;6.00;;;34.70;99.90;;;;;;5055367;28;20448;-71
2022/10/27 09:45:15;;;;;;;66.23;6.70;;;35.70;99.90;;;;;;5055090;28;20487;-72
2022/10/27 09:47:44;;;;;;;64.60;7.00;;;36.50;99.90;;;;;;5054987;28;20499;-71
2022/10/27 09:50:19;;;;;;;64.00;5.73;;;35.50;99.90;;;;;;5054669;28;20805;-72
2022/10/27 09:52:47;;;;;;;68.30;5.53;;;35.00;99.90;;;;;;5055195;28;20522;-72
2022/10/27 09:55:15;;;;;;;65.27;5.30;;;35.00;99.90;;;;;;5054966;28;20600;-72
2022/10/27 09:57:43;;;;;;;61.33;5.20;;;35.70;99.90;;;;;;5054765;28;20472;-72
2022/10/27 10:00:25;;;;;;;62.27;5.73;;;36.90;99.90;;;;;;5054629;28;20451;-72
2022/10/27 10:03:00;;;;;;;66.07;5.77;;;38.00;99.90;;;;;;5055003;28;20839;-72
2022/10/27 10:05:31;;;;;;;61.60;5.10;;;37.00;99.90;;;;;;5054883;28;20624;-72
2022/10/27 10:08:23;;;;;;;66.70;5.23;;;36.50;99.90;;;;;;5054597;28;20920;-72
2022/10/27 10:10:54;;;;;;;61.87;5.43;;;36.50;99.90;;;;;;5054325;28;20959;-72
2022/10/27 10:13:22;;;;;;;61.77;5.20;;;36.40;99.90;;;;;;5054824;28;20444;-72
2022/10/27 10:16:07;;;;;;;61.70;4.93;;;35.10;99.90;;;;;;5054481;28;20851;-73
2022/10/27 10:18:35;;;;;;;62.30;5.43;;;35.00;99.90;;;;;;5053972;28;20824;-73
2022/10/27 10:21:05;;;;;;;62.20;4.73;;;36.20;99.90;;;;;;5054568;28;20455;-73
2022/10/27 10:23:34;;;;;;;60.87;4.60;;;37.60;99.90;;;;;;5054499;28;20821;-73
2022/10/27 10:26:03;;;;;;;66.23;5.30;;;37.80;99.90;;;;;;5054320;28;20487;-73
2022/10/27 10:28:34;;;;;;;64.23;5.97;;;37.80;99.90;;;;;;5054274;28;20452;-73
2022/10/27 10:31:03;;;;;;;62.60;4.80;;;37.00;99.90;;;;;;5054406;28;20456;-73
2022/10/27 10:33:34;;;;;;;63.20;5.00;;;36.90;99.90;;;;;;5054190;28;20452;-73
2022/10/27 10:36:02;;;;;;;62.77;4.70;;;36.00;99.90;;;;;;5054087;28;20448;-73
2022/10/27 10:38:33;;;;;;;68.40;5.10;;;36.80;99.90;;;;;;5054151;28;20455;-73
2022/10/27 10:41:06;;;;;;;63.93;4.70;;;37.70;99.90;;;;;;5054194;28;20998;-73
2022/10/27 10:43:33;;;;;;;60.90;4.90;;;39.10;99.90;;;;;;5054115;28;20456;-73
2022/10/27 10:46:00;;;;;;;67.27;5.30;;;38.40;99.90;;;;;;5053896;28;20490;-73
2022/10/27 10:48:32;;;;;;;66.80;4.90;;;39.00;99.90;;;;;;5053949;28;20457;-73
2022/10/27 10:51:01;;;;;;;60.53;4.27;;;40.30;99.90;;;;;;5054041;28;20456;-73
2022/10/27 10:53:32;;;;;;;65.57;4.90;;;40.90;99.90;;;;;;5053932;28;20448;-73
2022/10/27 10:56:03;;;;;;;61.03;4.93;;;40.80;99.90;;;;;;5053821;28;20448;-71
2022/10/27 10:58:33;;;;;;;62.77;4.90;;;40.20;99.90;;;;;;5053740;28;20448;-71
2022/10/27 11:01:02;;;;;;;63.97;5.10;;;39.40;99.90;;;;;;5053621;28;20444;-71
2022/10/27 11:03:33;;;;;;;62.33;4.63;;;40.40;99.90;;;;;;5053653;28;20976;-73
2022/10/27 11:06:02;;;;;;;62.00;4.87;;;40.00;99.90;;;;;;5053568;28;20487;-73
2022/10/27 11:08:38;;;;;;;62.27;5.00;;;39.20;99.90;;;;;;5053511;28;20444;-73
2022/10/27 11:11:11;;;;;;;63.17;4.60;;;38.90;99.90;;;;;;5053443;28;20455;-71
2022/10/27 11:13:46;;;;;;;61.17;4.30;;;39.20;99.90;;;;;;5053633;28;20462;-71
2022/10/27 11:16:13;;;;;;;61.97;4.40;;;39.90;99.90;;;;;;5053564;28;20435;-71
2022/10/27 11:18:48;;;;;;;63.93;4.50;;;39.20;99.90;;;;;;5053025;28;20459;-71
2022/10/27 11:21:24;;;;;;;63.80;4.43;;;38.90;99.90;;;;;;5053566;28;20936;-73
2022/10/27 11:23:55;;;;;;;67.80;4.57;;;39.30;99.90;;;;;;5053254;28;20826;-73
2022/10/27 11:26:27;;;;;;;62.23;4.00;;;39.00;99.90;;;;;;5053168;28;20488;-73
2022/10/27 11:29:03;;;;;;;64.93;4.80;;;39.40;99.90;;;;;;5053391;28;20452;-73
2022/10/27 11:31:37;;;;;;;64.53;5.00;;;39.60;99.90;;;;;;5053127;28;20443;-73
2022/10/27 11:34:11;;;;;;;59.90;4.17;;;39.70;99.90;;;;;;5053637;28;20543;-71
2022/10/27 11:36:41;;;;;;;62.67;4.60;;;39.90;99.90;;;;;;5052910;28;20998;-71
2022/10/27 11:39:16;;;;;;;61.60;4.23;;;40.30;99.90;;;;;;5052728;28;20459;-71
2022/10/27 11:41:48;;;;;;;63.63;4.50;;;40.10;99.90;;;;;;5053171;28;20469;-71
2022/10/27 11:44:22;;;;;;;62.20;4.20;;;40.40;99.90;;;;;;5052943;28;20459;-71
2022/10/27 11:46:55;;;;;;;63.27;4.73;;;40.30;99.90;;;;;;5052967;28;20488;-73
2022/10/27 11:49:29;;;;;;;61.27;4.20;;;41.90;99.90;;;;;;5052778;28;20844;-73
2022/10/27 11:52:00;;;;;;;61.27;4.50;;;41.80;99.90;;;;;;5052803;28;20452;-73
2022/10/27 11:54:29;;;;;;;59.73;4.00;;;41.40;99.90;;;;;;5052669;28;20456;-73
2022/10/27 11:57:05;;;;;;;60.20;3.87;;;40.70;99.90;;;;;;5052536;28;20466;-73
2022/10/27 11:59:42;;;;;;;60.50;4.17;;;40.80;99.90;;;;;;5052221;28;20447;-73
2022/10/27 12:02:34;;;;;;;61.37;5.00;;;41.10;99.90;;;;;;5052198;28;20444;-73
2022/10/27 12:05:07;;;;;;;61.53;4.00;;;40.80;99.90;;;;;;5052674;28;20451;-73
2022/10/27 12:07:46;;;;;;;60.47;4.50;;;40.40;99.90;;;;;;5052265;28;20475;-73
2022/10/27 12:10:23;;;;;;;61.17;4.40;;;40.10;99.90;;;;;;5052237;28;20444;-73
2022/10/27 12:12:54;;;;;;;62.87;4.80;;;40.00;99.90;;;;;;5052554;28;20448;-73
2022/10/27 12:15:26;;;;;;;61.83;4.57;;;40.70;99.90;;;;;;5052380;28;20444;-73
2022/10/27 12:17:59;;;;;;;62.43;4.40;;;41.50;99.90;;;;;;5052054;28;20471;-73
2022/10/27 12:20:38;;;;;;;62.60;4.70;;;41.40;99.90;;;;;;5051839;28;20460;-73
2022/10/27 12:23:08;;;;;;;63.50;4.57;;;41.20;99.90;;;;;;5052339;28;20456;-73
2022/10/27 12:25:40;;;;;;;59.60;4.20;;;41.30;99.90;;;;;;5052237;28;20484;-73
2022/10/27 12:28:12;;;;;;;60.73;3.83;;;41.90;99.90;;;;;;5052063;28;20468;-73
2022/10/27 12:30:42;;;;;;;62.77;3.90;;;42.40;99.90;;;;;;5052113;28;20447;-73
2022/10/27 12:33:16;;;;;;;62.17;4.20;;;42.20;99.90;;;;;;5052455;28;20450;-73
2022/10/27 12:35:49;;;;;;;63.33;4.37;;;42.70;99.90;;;;;;5052101;28;20974;-73
2022/10/27 12:38:21;;;;;;;64.20;4.10;;;43.90;99.90;;;;;;5051949;28;20471;-73
2022/10/27 12:40:56;;;;;;;63.00;4.47;;;45.00;99.90;;;;;;5051846;28;20952;-72
2022/10/27 12:43:34;;;;;;;61.60;4.23;;;45.10;99.90;;;;;;5052144;28;20452;-72
2022/10/27 12:46:13;;;;;;;62.60;3.83;;;44.50;99.90;;;;;;5051677;28;20528;-72
2022/10/27 12:48:47;;;;;;;61.40;4.20;;;44.00;99.90;;;;;;5051466;28;20454;-71
2022/10/27 12:51:24;;;;;;;59.70;4.20;;;44.90;99.90;;;;;;5051605;28;20929;-71